sensor_id;sensor_type;location;lat;lon;timestamp;pressure;altitude;pressure_sealevel;temperature;humidity
59367;BME280;45163;47.690;11.770;2023-02-16T00:01:40;94228.09;;;0.02;100.00
59367;BME280;45163;47.690;11.770;2023-02-16T00:04:24;94235.88;;;0.07;100.00
59367;BME280;45163;47.690;11.770;2023-02-16T00:06:52;94234.03;;;-0.05;100.00
59367;BME280;45163;47.690;11.770;2023-02-16T00:09:19;94236.00;;;-0.17;100.00
59367;BME280;45163;47.690;11.770;2023-02-16T00:11:46;94235.91;;;-0.37;100.00
59367;BME280;45163;47.690;11.770;2023-02-16T00:14:33;94227.16;;;-0.62;100.00
59367;BME280;45163;47.690;11.770;2023-02-16T00:17:00;94229.28;;;-0.67;100.00
59367;BME280;45163;47.690;11.770;2023-02-16T00:21:54;94228.06;;;-0.14;100.00
59367;BME280;45163;47.690;11.770;2023-02-16T00:24:21;94216.66;;;0.05;100.00
59367;BME280;45163;47.690;11.770;2023-02-16T00:26:48;94218.13;;;0.03;100.00
59367;BME280;45163;47.690;11.770;2023-02-16T00:29:24;94218.88;;;-0.13;100.00
59367;BME280;45163;47.690;11.770;2023-02-16T00:31:51;94214.88;;;-0.35;100.00
59367;BME280;45163;47.690;11.770;2023-02-16T00:34:28;94214.88;;;-0.63;100.00
59367;BME280;45163;47.690;11.770;2023-02-16T00:36:55;94216.44;;;-0.62;100.00
59367;BME280;45163;47.690;11.770;2023-02-16T00:39:23;94219.59;;;-0.44;100.00
59367;BME280;45163;47.690;11.770;2023-02-16T00:41:54;94217.75;;;-0.28;100.00
59367;BME280;45163;47.690;11.770;2023-02-16T00:44:33;94218.88;;;-0.57;100.00
59367;BME280;45163;47.690;11.770;2023-02-16T00:47:02;94223.44;;;-0.85;100.00
59367;BME280;45163;47.690;11.770;2023-02-16T00:49:28;94219.22;;;-0.98;100.00
59367;BME280;45163;47.690;11.770;2023-02-16T00:51:55;94220.81;;;-1.10;100.00
59367;BME280;45163;47.690;11.770;2023-02-16T00:54:21;94226.63;;;-1.08;100.00
59367;BME280;45163;47.690;11.770;2023-02-16T00:56:47;94217.53;;;-0.91;100.00
59367;BME280;45163;47.690;11.770;2023-02-16T00:59:16;94225.50;;;-0.66;100.00
59367;BME280;45163;47.690;11.770;2023-02-16T01:01:43;94229.50;;;-0.32;100.00
59367;BME280;45163;47.690;11.770;2023-02-16T01:04:13;94215.75;;;-0.59;100.00
59367;BME280;45163;47.690;11.770;2023-02-16T01:06:42;94221.44;;;-0.88;100.00
59367;BME280;45163;47.690;11.770;2023-02-16T01:09:26;94215.81;;;-1.11;100.00
59367;BME280;45163;47.690;11.770;2023-02-16T01:12:14;94220.63;;;-1.29;100.00
59367;BME280;45163;47.690;11.770;2023-02-16T01:14:42;94224.75;;;-1.44;100.00
59367;BME280;45163;47.690;11.770;2023-02-16T01:17:10;94211.06;;;-1.55;100.00
59367;BME280;45163;47.690;11.770;2023-02-16T01:19:35;94209.03;;;-1.45;100.00
59367;BME280;45163;47.690;11.770;2023-02-16T01:22:01;94207.25;;;-1.29;100.00
59367;BME280;45163;47.690;11.770;2023-02-16T01:24:27;94205.00;;;-0.74;100.00
59367;BME280;45163;47.690;11.770;2023-02-16T01:26:53;94199.84;;;-0.80;100.00
59367;BME280;45163;47.690;11.770;2023-02-16T01:29:20;94198.97;;;-0.84;100.00
59367;BME280;45163;47.690;11.770;2023-02-16T01:31:46;94190.31;;;-0.37;100.00
59367;BME280;45163;47.690;11.770;2023-02-16T01:34:13;94188.59;;;-0.13;100.00
59367;BME280;45163;47.690;11.770;2023-02-16T01:36:42;94180.69;;;-0.38;100.00
59367;BME280;45163;47.690;11.770;2023-02-16T01:39:15;94169.44;;;-0.43;100.00
59367;BME280;45163;47.690;11.770;2023-02-16T01:42:19;94161.91;;;-0.54;100.00
59367;BME280;45163;47.690;11.770;2023-02-16T01:44:52;94162.97;;;-0.27;100.00
59367;BME280;45163;47.690;11.770;2023-02-16T01:52:41;94158.22;;;-0.33;100.00
59367;BME280;45163;47.690;11.770;2023-02-16T01:55:19;94159.53;;;-0.11;100.00
59367;BME280;45163;47.690;11.770;2023-02-16T02:03:23;94158.00;;;-0.84;100.00
59367;BME280;45163;47.690;11.770;2023-02-16T02:06:15;94155.50;;;-1.05;100.00
59367;BME280;45163;47.690;11.770;2023-02-16T02:09:02;94156.53;;;-1.22;100.00
59367;BME280;45163;47.690;11.770;2023-02-16T02:14:31;94147.91;;;-1.68;100.00
59367;BME280;45163;47.690;11.770;2023-02-16T02:17:00;94154.38;;;-1.44;100.00
59367;BME280;45163;47.690;11.770;2023-02-16T02:19:27;94148.78;;;-0.99;100.00
59367;BME280;45163;47.690;11.770;2023-02-16T02:25:29;94135.47;;;-0.08;100.00
59367;BME280;45163;47.690;11.770;2023-02-16T02:28:14;94132.75;;;0.24;100.00
59367;BME280;45163;47.690;11.770;2023-02-16T02:38:43;94138.28;;;0.47;100.00
59367;BME280;45163;47.690;11.770;2023-02-16T02:43:58;94131.63;;;0.25;100.00
59367;BME280;45163;47.690;11.770;2023-02-16T02:46:32;94132.66;;;0.20;100.00
59367;BME280;45163;47.690;11.770;2023-02-16T02:48:59;94132.84;;;0.12;100.00
59367;BME280;45163;47.690;11.770;2023-02-16T02:51:25;94131.97;;;0.08;100.00
59367;BME280;45163;47.690;11.770;2023-02-16T02:54:52;94139.06;;;0.16;100.00
59367;BME280;45163;47.690;11.770;2023-02-16T03:00:14;94138.22;;;-0.36;100.00
59367;BME280;45163;47.690;11.770;2023-02-16T03:05:50;94137.31;;;-0.99;100.00
59367;BME280;45163;47.690;11.770;2023-02-16T03:08:21;94142.13;;;-1.17;100.00
59367;BME280;45163;47.690;11.770;2023-02-16T03:10:51;94142.28;;;-1.26;100.00
59367;BME280;45163;47.690;11.770;2023-02-16T03:13:40;94145.44;;;-1.36;100.00
59367;BME280;45163;47.690;11.770;2023-02-16T03:16:30;94152.47;;;-1.44;100.00
59367;BME280;45163;47.690;11.770;2023-02-16T03:19:00;94152.47;;;-1.44;100.00
59367;BME280;45163;47.690;11.770;2023-02-16T03:21:46;94154.47;;;-1.29;100.00
59367;BME280;45163;47.690;11.770;2023-02-16T03:24:31;94156.53;;;-1.22;100.00
59367;BME280;45163;47.690;11.770;2023-02-16T03:27:21;94153.56;;;-1.33;100.00
59367;BME280;45163;47.690;11.770;2023-02-16T03:30:08;94151.19;;;-1.22;100.00
59367;BME280;45163;47.690;11.770;2023-02-16T03:32:36;94160.63;;;-1.40;100.00
59367;BME280;45163;47.690;11.770;2023-02-16T03:35:03;94158.63;;;-1.56;100.00
59367;BME280;45163;47.690;11.770;2023-02-16T03:37:29;94158.84;;;-1.61;100.00
59367;BME280;45163;47.690;11.770;2023-02-16T03:39:55;94161.53;;;-1.61;100.00
59367;BME280;45163;47.690;11.770;2023-02-16T03:42:47;94159.22;;;-1.74;100.00
59367;BME280;45163;47.690;11.770;2023-02-16T03:45:13;94159.44;;;-1.80;100.00
59367;BME280;45163;47.690;11.770;2023-02-16T03:47:39;94156.84;;;-1.76;100.00
59367;BME280;45163;47.690;11.770;2023-02-16T03:50:06;94162.78;;;-1.70;100.00
59367;BME280;45163;47.690;11.770;2023-02-16T03:52:32;94164.56;;;-1.87;100.00
59367;BME280;45163;47.690;11.770;2023-02-16T03:54:58;94171.34;;;-2.02;100.00
59367;BME280;45163;47.690;11.770;2023-02-16T03:57:25;94179.56;;;-2.19;100.00
59367;BME280;45163;47.690;11.770;2023-02-16T03:59:51;94176.56;;;-2.30;100.00
59367;BME280;45163;47.690;11.770;2023-02-16T04:02:20;94177.53;;;-2.34;100.00
59367;BME280;45163;47.690;11.770;2023-02-16T04:04:46;94177.28;;;-1.96;100.00
59367;BME280;45163;47.690;11.770;2023-02-16T04:07:12;94181.91;;;-1.32;100.00
59367;BME280;45163;47.690;11.770;2023-02-16T04:09:38;94179.25;;;-1.44;100.00
59367;BME280;45163;47.690;11.770;2023-02-16T04:12:04;94192.53;;;-1.60;100.00
59367;BME280;45163;47.690;11.770;2023-02-16T04:14:49;94188.75;;;-1.71;100.00
59367;BME280;45163;47.690;11.770;2023-02-16T04:17:15;94189.41;;;-1.86;100.00
59367;BME280;45163;47.690;11.770;2023-02-16T04:19:41;94192.84;;;-1.98;100.00
59367;BME280;45163;47.690;11.770;2023-02-16T04:22:07;94198.31;;;-2.07;100.00
59367;BME280;45163;47.690;11.770;2023-02-16T04:24:33;94205.66;;;-2.16;100.00
59367;BME280;45163;47.690;11.770;2023-02-16T04:26:59;94210.31;;;-2.25;100.00
59367;BME280;45163;47.690;11.770;2023-02-16T04:29:25;94209.03;;;-2.40;100.00
59367;BME280;45163;47.690;11.770;2023-02-16T04:31:51;94214.28;;;-2.43;100.00
59367;BME280;45163;47.690;11.770;2023-02-16T04:34:17;94212.72;;;-2.44;100.00
59367;BME280;45163;47.690;11.770;2023-02-16T04:36:43;94207.38;;;-2.44;100.00
59367;BME280;45163;47.690;11.770;2023-02-16T04:39:09;94208.53;;;-2.33;100.00
59367;BME280;45163;47.690;11.770;2023-02-16T04:41:35;94204.13;;;-2.05;100.00
59367;BME280;45163;47.690;11.770;2023-02-16T04:44:01;94215.81;;;-1.85;100.00
59367;BME280;45163;47.690;11.770;2023-02-16T04:46:27;94211.84;;;-1.54;100.00
59367;BME280;45163;47.690;11.770;2023-02-16T04:48:54;94215.72;;;-1.39;100.00
59367;BME280;45163;47.690;11.770;2023-02-16T04:51:20;94206.25;;;-1.49;100.00
59367;BME280;45163;47.690;11.770;2023-02-16T04:53:46;94213.50;;;-1.49;100.00
59367;BME280;45163;47.690;11.770;2023-02-16T04:56:12;94216.38;;;-1.42;100.00
59367;BME280;45163;47.690;11.770;2023-02-16T04:58:39;94213.03;;;-1.39;100.00
59367;BME280;45163;47.690;11.770;2023-02-16T05:01:06;94216.63;;;-1.60;100.00
59367;BME280;45163;47.690;11.770;2023-02-16T05:03:32;94218.84;;;-1.74;100.00
59367;BME280;45163;47.690;11.770;2023-02-16T05:05:58;94224.88;;;-1.77;100.00
59367;BME280;45163;47.690;11.770;2023-02-16T05:08:24;94230.78;;;-1.71;100.00
59367;BME280;45163;47.690;11.770;2023-02-16T05:10:51;94224.88;;;-1.65;100.00
59367;BME280;45163;47.690;11.770;2023-02-16T05:13:35;94231.66;;;-1.55;100.00
59367;BME280;45163;47.690;11.770;2023-02-16T05:16:21;94232.25;;;-1.49;100.00
59367;BME280;45163;47.690;11.770;2023-02-16T05:18:47;94231.13;;;-1.36;100.00
59367;BME280;45163;47.690;11.770;2023-02-16T05:21:13;94227.31;;;-1.23;100.00
59367;BME280;45163;47.690;11.770;2023-02-16T05:23:59;94223.59;;;-1.06;100.00
59367;BME280;45163;47.690;11.770;2023-02-16T05:26:26;94227.28;;;-1.11;100.00
59367;BME280;45163;47.690;11.770;2023-02-16T05:28:53;94225.84;;;-1.08;100.00
59367;BME280;45163;47.690;11.770;2023-02-16T05:31:19;94228.97;;;-1.06;100.00
59367;BME280;45163;47.690;11.770;2023-02-16T05:33:45;94225.53;;;-1.43;100.00
59367;BME280;45163;47.690;11.770;2023-02-16T05:36:11;94226.13;;;-1.62;100.00
59367;BME280;45163;47.690;11.770;2023-02-16T05:38:37;94228.09;;;-1.71;100.00
59367;BME280;45163;47.690;11.770;2023-02-16T05:41:03;94233.56;;;-1.80;100.00
59367;BME280;45163;47.690;11.770;2023-02-16T05:43:29;94227.41;;;-1.93;100.00
59367;BME280;45163;47.690;11.770;2023-02-16T05:45:55;94226.84;;;-1.98;100.00
59367;BME280;45163;47.690;11.770;2023-02-16T05:48:21;94232.09;;;-2.02;100.00
59367;BME280;45163;47.690;11.770;2023-02-16T05:50:47;94228.88;;;-1.95;100.00
59367;BME280;45163;47.690;11.770;2023-02-16T05:53:13;94242.84;;;-1.65;100.00
59367;BME280;45163;47.690;11.770;2023-02-16T05:55:39;94239.50;;;-1.38;100.00
59367;BME280;45163;47.690;11.770;2023-02-16T05:58:05;94240.72;;;-1.35;100.00
59367;BME280;45163;47.690;11.770;2023-02-16T06:00:32;94231.78;;;-1.39;100.00
59367;BME280;45163;47.690;11.770;2023-02-16T06:02:58;94245.06;;;-1.43;100.00
59367;BME280;45163;47.690;11.770;2023-02-16T06:05:25;94247.19;;;-1.48;100.00
59367;BME280;45163;47.690;11.770;2023-02-16T06:07:51;94251.09;;;-1.58;100.00
59367;BME280;45163;47.690;11.770;2023-02-16T06:10:17;94256.88;;;-1.56;100.00
59367;BME280;45163;47.690;11.770;2023-02-16T06:12:43;94265.50;;;-1.63;100.00
59367;BME280;45163;47.690;11.770;2023-02-16T06:15:10;94248.28;;;-1.74;100.00
59367;BME280;45163;47.690;11.770;2023-02-16T06:17:36;94253.41;;;-1.69;100.00
59367;BME280;45163;47.690;11.770;2023-02-16T06:20:03;94254.22;;;-1.56;100.00
59367;BME280;45163;47.690;11.770;2023-02-16T06:22:30;94257.13;;;-1.61;100.00
59367;BME280;45163;47.690;11.770;2023-02-16T06:24:56;94258.22;;;-1.62;100.00
59367;BME280;45163;47.690;11.770;2023-02-16T06:27:22;94255.84;;;-1.76;100.00
59367;BME280;45163;47.690;11.770;2023-02-16T06:29:48;94262.56;;;-1.70;100.00
59367;BME280;45163;47.690;11.770;2023-02-16T06:32:14;94251.41;;;-1.47;100.00
59367;BME280;45163;47.690;11.770;2023-02-16T06:34:40;94261.44;;;-1.69;100.00
59367;BME280;45163;47.690;11.770;2023-02-16T06:37:06;94267.25;;;-1.79;100.00
59367;BME280;45163;47.690;11.770;2023-02-16T06:39:32;94259.19;;;-1.91;100.00
59367;BME280;45163;47.690;11.770;2023-02-16T06:41:58;94266.81;;;-1.57;100.00
59367;BME280;45163;47.690;11.770;2023-02-16T06:44:23;94261.81;;;-1.46;100.00
59367;BME280;45163;47.690;11.770;2023-02-16T06:46:49;94264.81;;;-1.35;100.00
59367;BME280;45163;47.690;11.770;2023-02-16T06:49:17;94265.47;;;-1.26;100.00
59367;BME280;45163;47.690;11.770;2023-02-16T06:51:44;94267.34;;;-1.02;100.00
59367;BME280;45163;47.690;11.770;2023-02-16T06:54:10;94276.75;;;-1.20;100.00
59367;BME280;45163;47.690;11.770;2023-02-16T06:56:36;94274.31;;;-1.38;100.00
59367;BME280;45163;47.690;11.770;2023-02-16T06:59:02;94274.31;;;-1.38;100.00
59367;BME280;45163;47.690;11.770;2023-02-16T07:01:29;94266.47;;;-1.31;100.00
59367;BME280;45163;47.690;11.770;2023-02-16T07:03:56;94270.41;;;-1.28;100.00
59367;BME280;45163;47.690;11.770;2023-02-16T07:06:24;94271.84;;;-1.18;100.00
59367;BME280;45163;47.690;11.770;2023-02-16T07:08:51;94273.50;;;-1.14;100.00
59367;BME280;45163;47.690;11.770;2023-02-16T07:11:18;94269.81;;;-1.09;100.00
59367;BME280;45163;47.690;11.770;2023-02-16T07:13:45;94282.63;;;-0.78;100.00
59367;BME280;45163;47.690;11.770;2023-02-16T07:16:12;94284.31;;;-0.45;100.00
59367;BME280;45163;47.690;11.770;2023-02-16T07:18:38;94281.66;;;-0.02;100.00
59367;BME280;45163;47.690;11.770;2023-02-16T07:21:05;94280.06;;;0.10;100.00
59367;BME280;45163;47.690;11.770;2023-02-16T07:23:32;94279.03;;;0.46;100.00
59367;BME280;45163;47.690;11.770;2023-02-16T07:25:58;94278.34;;;0.81;100.00
59367;BME280;45163;47.690;11.770;2023-02-16T07:28:24;94270.50;;;1.62;100.00
59367;BME280;45163;47.690;11.770;2023-02-16T07:30:51;94269.38;;;2.24;100.00
59367;BME280;45163;47.690;11.770;2023-02-16T07:33:17;94277.47;;;2.70;100.00
59367;BME280;45163;47.690;11.770;2023-02-16T07:35:43;94268.75;;;3.04;100.00
59367;BME280;45163;47.690;11.770;2023-02-16T07:38:09;94268.59;;;3.19;100.00
59367;BME280;45163;47.690;11.770;2023-02-16T07:40:36;94267.00;;;3.15;100.00
59367;BME280;45163;47.690;11.770;2023-02-16T07:43:03;94259.22;;;3.36;100.00
59367;BME280;45163;47.690;11.770;2023-02-16T07:45:31;94264.19;;;3.34;100.00
59367;BME280;45163;47.690;11.770;2023-02-16T07:47:58;94255.84;;;3.16;100.00
59367;BME280;45163;47.690;11.770;2023-02-16T07:50:24;94268.75;;;3.30;100.00
59367;BME280;45163;47.690;11.770;2023-02-16T07:52:51;94271.50;;;3.07;100.00
59367;BME280;45163;47.690;11.770;2023-02-16T07:55:17;94270.72;;;3.33;100.00
59367;BME280;45163;47.690;11.770;2023-02-16T07:57:43;94276.34;;;3.47;100.00
59367;BME280;45163;47.690;11.770;2023-02-16T08:00:09;94271.53;;;3.64;100.00
59367;BME280;45163;47.690;11.770;2023-02-16T08:02:35;94277.50;;;4.14;100.00
59367;BME280;45163;47.690;11.770;2023-02-16T08:05:01;94265.97;;;4.17;100.00
59367;BME280;45163;47.690;11.770;2023-02-16T08:07:28;94273.63;;;4.11;100.00
59367;BME280;45163;47.690;11.770;2023-02-16T08:09:53;94275.50;;;4.85;100.00
59367;BME280;45163;47.690;11.770;2023-02-16T08:12:19;94272.03;;;5.40;100.00
59367;BME280;45163;47.690;11.770;2023-02-16T08:14:46;94272.75;;;5.33;100.00
59367;BME280;45163;47.690;11.770;2023-02-16T08:17:13;94270.59;;;5.57;100.00
59367;BME280;45163;47.690;11.770;2023-02-16T08:19:39;94268.75;;;5.79;100.00
59367;BME280;45163;47.690;11.770;2023-02-16T08:22:06;94269.41;;;5.54;100.00
59367;BME280;45163;47.690;11.770;2023-02-16T08:24:33;94269.19;;;5.88;100.00
59367;BME280;45163;47.690;11.770;2023-02-16T08:27:02;94273.09;;;5.97;100.00
59367;BME280;45163;47.690;11.770;2023-02-16T08:29:30;94264.16;;;5.86;100.00
59367;BME280;45163;47.690;11.770;2023-02-16T08:31:56;94259.78;;;5.60;100.00
59367;BME280;45163;47.690;11.770;2023-02-16T08:34:23;94269.16;;;5.84;100.00
59367;BME280;45163;47.690;11.770;2023-02-16T08:36:54;94269.09;;;5.70;100.00
59367;BME280;45163;47.690;11.770;2023-02-16T08:39:24;94263.66;;;5.66;100.00
59367;BME280;45163;47.690;11.770;2023-02-16T08:41:51;94264.13;;;5.83;100.00
59367;BME280;45163;47.690;11.770;2023-02-16T08:44:19;94270.53;;;6.37;100.00
59367;BME280;45163;47.690;11.770;2023-02-16T08:46:47;94263.22;;;6.55;100.00
59367;BME280;45163;47.690;11.770;2023-02-16T08:49:14;94271.00;;;6.82;100.00
59367;BME280;45163;47.690;11.770;2023-02-16T08:51:44;94278.38;;;6.74;100.00
59367;BME280;45163;47.690;11.770;2023-02-16T08:54:20;94277.94;;;6.51;100.00
59367;BME280;45163;47.690;11.770;2023-02-16T08:56:47;94270.59;;;6.80;100.00
59367;BME280;45163;47.690;11.770;2023-02-16T08:59:16;94275.28;;;7.15;100.00
59367;BME280;45163;47.690;11.770;2023-02-16T09:01:42;94272.91;;;7.38;100.00
59367;BME280;45163;47.690;11.770;2023-02-16T09:04:09;94276.16;;;8.28;100.00
59367;BME280;45163;47.690;11.770;2023-02-16T09:06:38;94273.34;;;9.09;100.00
59367;BME280;45163;47.690;11.770;2023-02-16T09:09:05;94267.94;;;9.05;100.00
59367;BME280;45163;47.690;11.770;2023-02-16T09:11:32;94265.31;;;8.21;100.00
59367;BME280;45163;47.690;11.770;2023-02-16T09:13:58;94264.47;;;8.38;100.00
59367;BME280;45163;47.690;11.770;2023-02-16T09:16:24;94257.19;;;8.10;100.00
59367;BME280;45163;47.690;11.770;2023-02-16T09:18:52;94265.81;;;8.79;100.00
59367;BME280;45163;47.690;11.770;2023-02-16T09:21:21;94265.81;;;9.27;100.00
59367;BME280;45163;47.690;11.770;2023-02-16T09:23:48;94264.81;;;9.52;96.69
59367;BME280;45163;47.690;11.770;2023-02-16T09:26:19;94266.13;;;10.12;97.04
59367;BME280;45163;47.690;11.770;2023-02-16T09:28:47;94265.06;;;10.36;95.10
59367;BME280;45163;47.690;11.770;2023-02-16T09:31:19;94267.63;;;10.78;88.38
59367;BME280;45163;47.690;11.770;2023-02-16T09:33:51;94263.16;;;10.64;83.07
59367;BME280;45163;47.690;11.770;2023-02-16T09:36:17;94258.25;;;10.52;78.83
59367;BME280;45163;47.690;11.770;2023-02-16T09:38:43;94264.03;;;10.27;83.84
59367;BME280;45163;47.690;11.770;2023-02-16T09:41:31;94262.34;;;10.67;82.24
59367;BME280;45163;47.690;11.770;2023-02-16T09:46:35;94270.84;;;12.89;69.71
59367;BME280;45163;47.690;11.770;2023-02-16T09:49:02;94251.84;;;12.06;61.34
59367;BME280;45163;47.690;11.770;2023-02-16T09:51:35;94256.22;;;12.96;64.83
59367;BME280;45163;47.690;11.770;2023-02-16T09:54:11;94258.81;;;13.68;62.11
59367;BME280;45163;47.690;11.770;2023-02-16T09:56:55;94252.69;;;14.64;62.06
59367;BME280;45163;47.690;11.770;2023-02-16T10:02:14;94252.00;;;14.60;52.79
59367;BME280;45163;47.690;11.770;2023-02-16T10:05:02;94250.13;;;15.72;50.03
59367;BME280;45163;47.690;11.770;2023-02-16T10:11:16;94246.84;;;17.27;48.38
59367;BME280;45163;47.690;11.770;2023-02-16T10:13:28;94249.31;;;18.30;38.89
59367;BME280;45163;47.690;11.770;2023-02-16T10:16:00;94241.75;;;19.61;42.42
59367;BME280;45163;47.690;11.770;2023-02-16T10:18:31;94239.97;;;19.39;38.68
59367;BME280;45163;47.690;11.770;2023-02-16T10:21:01;94231.09;;;19.93;38.30
59367;BME280;45163;47.690;11.770;2023-02-16T10:29:05;94232.69;;;19.51;29.64
59367;BME280;45163;47.690;11.770;2023-02-16T10:34:17;94224.53;;;20.05;32.73
59367;BME280;45163;47.690;11.770;2023-02-16T10:39:37;94216.72;;;21.51;31.29
59367;BME280;45163;47.690;11.770;2023-02-16T10:47:53;94217.72;;;21.69;27.89
59367;BME280;45163;47.690;11.770;2023-02-16T10:50:40;94212.63;;;20.82;27.43
59367;BME280;45163;47.690;11.770;2023-02-16T10:53:14;94210.44;;;19.94;26.07
59367;BME280;45163;47.690;11.770;2023-02-16T10:55:42;94210.38;;;19.55;27.81
59367;BME280;45163;47.690;11.770;2023-02-16T10:58:25;94210.69;;;20.88;27.43
59367;BME280;45163;47.690;11.770;2023-02-16T11:00:56;94211.91;;;22.74;23.80
59367;BME280;45163;47.690;11.770;2023-02-16T11:03:28;94205.72;;;22.18;23.31
59367;BME280;45163;47.690;11.770;2023-02-16T11:05:55;94202.59;;;20.31;25.14
59367;BME280;45163;47.690;11.770;2023-02-16T11:08:21;94199.59;;;21.03;23.97
59367;BME280;45163;47.690;11.770;2023-02-16T11:10:51;94190.06;;;21.24;24.19
59367;BME280;45163;47.690;11.770;2023-02-16T11:13:29;94197.66;;;22.67;23.64
59367;BME280;45163;47.690;11.770;2023-02-16T11:16:00;94200.66;;;22.63;22.18
59367;BME280;45163;47.690;11.770;2023-02-16T11:18:34;94193.78;;;22.58;22.99
59367;BME280;45163;47.690;11.770;2023-02-16T11:21:03;94190.72;;;22.56;21.99
59367;BME280;45163;47.690;11.770;2023-02-16T11:23:42;94183.06;;;21.64;22.35
59367;BME280;45163;47.690;11.770;2023-02-16T11:28:39;94180.88;;;22.87;20.70
59367;BME280;45163;47.690;11.770;2023-02-16T11:33:39;94178.69;;;22.45;20.72
59367;BME280;45163;47.690;11.770;2023-02-16T11:39:18;94171.16;;;22.77;22.22
59367;BME280;45163;47.690;11.770;2023-02-16T11:41:49;94169.06;;;20.88;21.47
59367;BME280;45163;47.690;11.770;2023-02-16T11:44:41;94161.56;;;21.09;22.30
59367;BME280;45163;47.690;11.770;2023-02-16T11:52:52;94153.75;;;19.32;25.94
59367;BME280;45163;47.690;11.770;2023-02-16T11:55:28;94152.47;;;19.42;26.65
59367;BME280;45163;47.690;11.770;2023-02-16T12:00:54;94146.66;;;19.07;26.00
59367;BME280;45163;47.690;11.770;2023-02-16T12:06:30;94151.06;;;17.55;26.69
59367;BME280;45163;47.690;11.770;2023-02-16T12:14:39;94144.44;;;18.26;27.04
59367;BME280;45163;47.690;11.770;2023-02-16T12:22:45;94128.22;;;21.24;25.03
59367;BME280;45163;47.690;11.770;2023-02-16T12:25:38;94123.44;;;21.24;24.00
59367;BME280;45163;47.690;11.770;2023-02-16T12:39:29;94107.97;;;21.03;24.98
59367;BME280;45163;47.690;11.770;2023-02-16T12:44:34;94105.06;;;20.47;25.01
59367;BME280;45163;47.690;11.770;2023-02-16T12:49:38;94110.97;;;21.75;23.59
59367;BME280;45163;47.690;11.770;2023-02-16T12:52:18;94107.28;;;21.63;24.02
59367;BME280;45163;47.690;11.770;2023-02-16T12:54:51;94099.25;;;21.30;23.87
59367;BME280;45163;47.690;11.770;2023-02-16T12:57:22;94097.84;;;21.00;24.16
59367;BME280;45163;47.690;11.770;2023-02-16T12:59:56;94094.25;;;21.14;24.34
59367;BME280;45163;47.690;11.770;2023-02-16T13:05:05;94091.56;;;21.81;23.56
59367;BME280;45163;47.690;11.770;2023-02-16T13:07:38;94088.88;;;22.38;22.33
59367;BME280;45163;47.690;11.770;2023-02-16T13:12:46;94079.88;;;22.49;22.67
59367;BME280;45163;47.690;11.770;2023-02-16T13:15:20;94084.53;;;22.63;23.12
59367;BME280;45163;47.690;11.770;2023-02-16T13:17:55;94069.78;;;22.00;22.32
59367;BME280;45163;47.690;11.770;2023-02-16T13:20:23;94073.31;;;22.21;21.93
59367;BME280;45163;47.690;11.770;2023-02-16T13:25:45;94079.75;;;22.12;21.87
59367;BME280;45163;47.690;11.770;2023-02-16T13:39:40;94070.97;;;20.91;22.08
59367;BME280;45163;47.690;11.770;2023-02-16T13:44:43;94061.41;;;20.57;22.91
59367;BME280;45163;47.690;11.770;2023-02-16T13:47:17;94060.84;;;20.53;21.39
59367;BME280;45163;47.690;11.770;2023-02-16T13:49:46;94068.47;;;20.13;23.57
59367;BME280;45163;47.690;11.770;2023-02-16T13:52:36;94064.19;;;19.59;24.56
59367;BME280;45163;47.690;11.770;2023-02-16T13:55:51;94066.13;;;19.68;24.26
59367;BME280;45163;47.690;11.770;2023-02-16T14:00:57;94073.28;;;18.87;25.19
59367;BME280;45163;47.690;11.770;2023-02-16T14:05:46;94065.88;;;18.18;25.59
59367;BME280;45163;47.690;11.770;2023-02-16T14:13:26;94072.06;;;18.04;26.88
59367;BME280;45163;47.690;11.770;2023-02-16T14:15:55;94066.25;;;17.10;26.00
59367;BME280;45163;47.690;11.770;2023-02-16T14:18:29;94067.50;;;17.36;26.18
59367;BME280;45163;47.690;11.770;2023-02-16T14:21:05;94068.25;;;17.83;26.96
59367;BME280;45163;47.690;11.770;2023-02-16T14:23:33;94068.06;;;17.04;27.96
59367;BME280;45163;47.690;11.770;2023-02-16T14:26:04;94060.94;;;15.94;29.94
59367;BME280;45163;47.690;11.770;2023-02-16T14:30:59;94066.22;;;15.23;31.81
59367;BME280;45163;47.690;11.770;2023-02-16T14:36:13;94058.22;;;14.81;31.24
59367;BME280;45163;47.690;11.770;2023-02-16T14:41:12;94061.66;;;14.60;33.62
59367;BME280;45163;47.690;11.770;2023-02-16T14:44:22;94062.31;;;14.13;34.06
59367;BME280;45163;47.690;11.770;2023-02-16T14:58:30;94060.09;;;14.20;33.30
59367;BME280;45163;47.690;11.770;2023-02-16T15:01:16;94065.50;;;14.62;32.13
59367;BME280;45163;47.690;11.770;2023-02-16T15:08:55;94057.50;;;13.62;33.38
59367;BME280;45163;47.690;11.770;2023-02-16T15:11:32;94055.47;;;13.37;33.72
59367;BME280;45163;47.690;11.770;2023-02-16T15:14:08;94062.94;;;13.37;34.60
59367;BME280;45163;47.690;11.770;2023-02-16T15:16:39;94056.63;;;13.53;33.47
59367;BME280;45163;47.690;11.770;2023-02-16T15:19:15;94066.75;;;13.10;35.11
59367;BME280;45163;47.690;11.770;2023-02-16T15:21:42;94063.09;;;13.01;34.44
59367;BME280;45163;47.690;11.770;2023-02-16T15:24:20;94059.81;;;12.44;36.76
59367;BME280;45163;47.690;11.770;2023-02-16T15:26:53;94069.00;;;12.01;37.04
59367;BME280;45163;47.690;11.770;2023-02-16T15:29:24;94065.81;;;11.66;38.86
59367;BME280;45163;47.690;11.770;2023-02-16T15:31:54;94065.63;;;11.17;40.50
59367;BME280;45163;47.690;11.770;2023-02-16T15:34:27;94063.25;;;10.76;42.28
59367;BME280;45163;47.690;11.770;2023-02-16T15:36:55;94068.75;;;10.49;42.88
59367;BME280;45163;47.690;11.770;2023-02-16T15:44:43;94064.69;;;9.53;48.86
59367;BME280;45163;47.690;11.770;2023-02-16T15:49:40;94060.00;;;9.22;48.70
59367;BME280;45163;47.690;11.770;2023-02-16T15:52:15;94061.00;;;9.02;50.88
59367;BME280;45163;47.690;11.770;2023-02-16T15:54:43;94071.41;;;8.72;53.48
59367;BME280;45163;47.690;11.770;2023-02-16T15:57:17;94074.75;;;8.50;52.92